sensor_id;sensor_type;location;lat;lon;timestamp;P1;durP1;ratioP1;P2;durP2;ratioP2
8092;SDS011;4089;52.420;13.334;2023-06-26T00:00:30;41.47;;;14.43;;
8092;SDS011;4089;52.420;13.334;2023-06-26T00:02:58;41.17;;;12.10;;
8092;SDS011;4089;52.420;13.334;2023-06-26T00:05:25;39.37;;;12.33;;
8092;SDS011;4089;52.420;13.334;2023-06-26T00:07:54;39.80;;;13.03;;
8092;SDS011;4089;52.420;13.334;2023-06-26T00:10:20;42.60;;;12.77;;
8092;SDS011;4089;52.420;13.334;2023-06-26T00:12:47;48.77;;;14.10;;
8092;SDS011;4089;52.420;13.334;2023-06-26T00:15:14;41.43;;;13.47;;
8092;SDS011;4089;52.420;13.334;2023-06-26T00:17:41;41.60;;;12.70;;
8092;SDS011;4089;52.420;13.334;2023-06-26T00:20:08;42.10;;;14.60;;
8092;SDS011;4089;52.420;13.334;2023-06-26T00:22:35;41.70;;;12.80;;
8092;SDS011;4089;52.420;13.334;2023-06-26T00:25:02;42.63;;;13.73;;
8092;SDS011;4089;52.420;13.334;2023-06-26T00:27:29;42.07;;;14.43;;
8092;SDS011;4089;52.420;13.334;2023-06-26T00:29:56;41.50;;;14.63;;
8092;SDS011;4089;52.420;13.334;2023-06-26T00:32:23;39.40;;;13.90;;
8092;SDS011;4089;52.420;13.334;2023-06-26T00:34:50;39.27;;;12.73;;
8092;SDS011;4089;52.420;13.334;2023-06-26T00:37:18;42.37;;;13.80;;
8092;SDS011;4089;52.420;13.334;2023-06-26T00:39:45;43.20;;;14.43;;
8092;SDS011;4089;52.420;13.334;2023-06-26T00:42:12;41.47;;;12.97;;
8092;SDS011;4089;52.420;13.334;2023-06-26T00:44:38;40.33;;;13.00;;
8092;SDS011;4089;52.420;13.334;2023-06-26T00:47:05;37.20;;;12.47;;
8092;SDS011;4089;52.420;13.334;2023-06-26T00:49:32;39.50;;;13.27;;
8092;SDS011;4089;52.420;13.334;2023-06-26T00:51:59;43.60;;;13.27;;
8092;SDS011;4089;52.420;13.334;2023-06-26T00:54:26;39.80;;;13.33;;
8092;SDS011;4089;52.420;13.334;2023-06-26T00:56:53;45.57;;;14.67;;
8092;SDS011;4089;52.420;13.334;2023-06-26T00:59:19;42.37;;;13.37;;
8092;SDS011;4089;52.420;13.334;2023-06-26T01:01:46;40.50;;;13.30;;
8092;SDS011;4089;52.420;13.334;2023-06-26T01:04:14;38.60;;;11.60;;
8092;SDS011;4089;52.420;13.334;2023-06-26T01:06:47;39.20;;;12.10;;
8092;SDS011;4089;52.420;13.334;2023-06-26T01:09:19;39.60;;;12.27;;
8092;SDS011;4089;52.420;13.334;2023-06-26T01:11:46;43.53;;;14.00;;
8092;SDS011;4089;52.420;13.334;2023-06-26T01:14:13;46.37;;;12.83;;
8092;SDS011;4089;52.420;13.334;2023-06-26T01:16:40;41.87;;;12.90;;
8092;SDS011;4089;52.420;13.334;2023-06-26T01:19:15;40.47;;;13.80;;
8092;SDS011;4089;52.420;13.334;2023-06-26T01:21:55;40.13;;;12.50;;
8092;SDS011;4089;52.420;13.334;2023-06-26T01:26:59;40.90;;;13.67;;
8092;SDS011;4089;52.420;13.334;2023-06-26T01:29:27;41.00;;;12.80;;
8092;SDS011;4089;52.420;13.334;2023-06-26T01:31:56;43.10;;;13.73;;
8092;SDS011;4089;52.420;13.334;2023-06-26T01:34:24;43.13;;;14.60;;
8092;SDS011;4089;52.420;13.334;2023-06-26T01:36:52;40.00;;;12.83;;
8092;SDS011;4089;52.420;13.334;2023-06-26T01:39:19;40.33;;;13.20;;
8092;SDS011;4089;52.420;13.334;2023-06-26T01:41:46;43.73;;;14.27;;
8092;SDS011;4089;52.420;13.334;2023-06-26T01:47:00;45.37;;;14.90;;
8092;SDS011;4089;52.420;13.334;2023-06-26T01:49:40;45.70;;;14.00;;
8092;SDS011;4089;52.420;13.334;2023-06-26T01:52:41;44.70;;;14.70;;
8092;SDS011;4089;52.420;13.334;2023-06-26T01:57:49;39.73;;;12.97;;
8092;SDS011;4089;52.420;13.334;2023-06-26T02:00:20;44.00;;;14.00;;
8092;SDS011;4089;52.420;13.334;2023-06-26T02:02:47;39.90;;;13.87;;
8092;SDS011;4089;52.420;13.334;2023-06-26T02:05:14;43.13;;;13.80;;
8092;SDS011;4089;52.420;13.334;2023-06-26T02:07:41;42.50;;;13.80;;
8092;SDS011;4089;52.420;13.334;2023-06-26T02:10:10;43.27;;;13.90;;
8092;SDS011;4089;52.420;13.334;2023-06-26T02:12:37;41.00;;;13.63;;
8092;SDS011;4089;52.420;13.334;2023-06-26T02:15:04;44.20;;;14.43;;
8092;SDS011;4089;52.420;13.334;2023-06-26T02:17:31;45.53;;;13.70;;
8092;SDS011;4089;52.420;13.334;2023-06-26T02:19:58;51.53;;;15.50;;
8092;SDS011;4089;52.420;13.334;2023-06-26T02:22:25;46.27;;;15.33;;
8092;SDS011;4089;52.420;13.334;2023-06-26T02:24:51;45.00;;;15.60;;
8092;SDS011;4089;52.420;13.334;2023-06-26T02:27:18;45.17;;;14.10;;
8092;SDS011;4089;52.420;13.334;2023-06-26T02:29:45;44.10;;;14.30;;
8092;SDS011;4089;52.420;13.334;2023-06-26T02:32:12;43.50;;;14.60;;
8092;SDS011;4089;52.420;13.334;2023-06-26T02:34:38;43.50;;;15.27;;
8092;SDS011;4089;52.420;13.334;2023-06-26T02:37:05;46.63;;;15.00;;
8092;SDS011;4089;52.420;13.334;2023-06-26T02:39:34;44.37;;;14.67;;
8092;SDS011;4089;52.420;13.334;2023-06-26T02:42:01;45.97;;;15.37;;
8092;SDS011;4089;52.420;13.334;2023-06-26T02:44:27;46.43;;;15.73;;
8092;SDS011;4089;52.420;13.334;2023-06-26T02:46:54;48.07;;;15.53;;
8092;SDS011;4089;52.420;13.334;2023-06-26T02:49:21;43.03;;;15.83;;
8092;SDS011;4089;52.420;13.334;2023-06-26T02:51:49;43.40;;;16.20;;
8092;SDS011;4089;52.420;13.334;2023-06-26T02:54:15;48.40;;;17.20;;
8092;SDS011;4089;52.420;13.334;2023-06-26T02:56:42;44.23;;;15.30;;
8092;SDS011;4089;52.420;13.334;2023-06-26T02:59:13;50.90;;;16.63;;
8092;SDS011;4089;52.420;13.334;2023-06-26T03:01:40;47.20;;;17.33;;
8092;SDS011;4089;52.420;13.334;2023-06-26T03:04:08;51.37;;;18.53;;
8092;SDS011;4089;52.420;13.334;2023-06-26T03:06:36;52.83;;;18.57;;
8092;SDS011;4089;52.420;13.334;2023-06-26T03:09:03;47.33;;;16.90;;
8092;SDS011;4089;52.420;13.334;2023-06-26T03:11:30;49.07;;;17.13;;
8092;SDS011;4089;52.420;13.334;2023-06-26T03:13:57;48.43;;;17.27;;
8092;SDS011;4089;52.420;13.334;2023-06-26T03:16:24;46.70;;;19.10;;
8092;SDS011;4089;52.420;13.334;2023-06-26T03:18:50;49.60;;;17.30;;
8092;SDS011;4089;52.420;13.334;2023-06-26T03:21:17;46.97;;;16.80;;
8092;SDS011;4089;52.420;13.334;2023-06-26T03:23:44;50.80;;;18.80;;
8092;SDS011;4089;52.420;13.334;2023-06-26T03:26:11;47.93;;;18.00;;
8092;SDS011;4089;52.420;13.334;2023-06-26T03:28:40;50.90;;;18.43;;
8092;SDS011;4089;52.420;13.334;2023-06-26T03:31:08;47.87;;;18.10;;
8092;SDS011;4089;52.420;13.334;2023-06-26T03:33:35;47.03;;;18.33;;
8092;SDS011;4089;52.420;13.334;2023-06-26T03:36:03;54.27;;;18.93;;
8092;SDS011;4089;52.420;13.334;2023-06-26T03:38:30;53.00;;;18.37;;
8092;SDS011;4089;52.420;13.334;2023-06-26T03:40:57;45.67;;;15.87;;
8092;SDS011;4089;52.420;13.334;2023-06-26T03:43:24;45.37;;;17.17;;
8092;SDS011;4089;52.420;13.334;2023-06-26T03:45:50;44.90;;;16.60;;
8092;SDS011;4089;52.420;13.334;2023-06-26T03:48:17;45.70;;;17.63;;
8092;SDS011;4089;52.420;13.334;2023-06-26T03:50:44;48.70;;;17.43;;
8092;SDS011;4089;52.420;13.334;2023-06-26T03:53:11;46.33;;;17.77;;
8092;SDS011;4089;52.420;13.334;2023-06-26T03:55:38;43.57;;;16.70;;
8092;SDS011;4089;52.420;13.334;2023-06-26T03:58:05;44.20;;;17.00;;
8092;SDS011;4089;52.420;13.334;2023-06-26T04:00:32;44.80;;;15.90;;
8092;SDS011;4089;52.420;13.334;2023-06-26T04:02:59;45.30;;;16.60;;
8092;SDS011;4089;52.420;13.334;2023-06-26T04:05:25;46.23;;;16.17;;
8092;SDS011;4089;52.420;13.334;2023-06-26T04:07:52;41.57;;;15.17;;
8092;SDS011;4089;52.420;13.334;2023-06-26T04:10:20;42.00;;;15.90;;
8092;SDS011;4089;52.420;13.334;2023-06-26T04:12:47;39.63;;;16.40;;
8092;SDS011;4089;52.420;13.334;2023-06-26T04:15:14;43.07;;;17.30;;
8092;SDS011;4089;52.420;13.334;2023-06-26T04:17:41;40.27;;;15.27;;
8092;SDS011;4089;52.420;13.334;2023-06-26T04:20:08;40.93;;;16.63;;
8092;SDS011;4089;52.420;13.334;2023-06-26T04:22:35;43.70;;;16.77;;
8092;SDS011;4089;52.420;13.334;2023-06-26T04:25:02;44.67;;;16.40;;
8092;SDS011;4089;52.420;13.334;2023-06-26T04:27:30;38.67;;;14.07;;
8092;SDS011;4089;52.420;13.334;2023-06-26T04:29:56;41.33;;;15.97;;
8092;SDS011;4089;52.420;13.334;2023-06-26T04:32:23;37.23;;;14.70;;
8092;SDS011;4089;52.420;13.334;2023-06-26T04:34:50;42.33;;;16.20;;
8092;SDS011;4089;52.420;13.334;2023-06-26T04:37:17;39.90;;;15.63;;
8092;SDS011;4089;52.420;13.334;2023-06-26T04:39:44;41.27;;;17.80;;
8092;SDS011;4089;52.420;13.334;2023-06-26T04:42:11;44.50;;;18.20;;
8092;SDS011;4089;52.420;13.334;2023-06-26T04:44:38;39.17;;;16.40;;
8092;SDS011;4089;52.420;13.334;2023-06-26T04:47:07;39.63;;;17.50;;
8092;SDS011;4089;52.420;13.334;2023-06-26T04:49:34;40.13;;;16.47;;
8092;SDS011;4089;52.420;13.334;2023-06-26T04:52:04;40.87;;;17.10;;
8092;SDS011;4089;52.420;13.334;2023-06-26T04:54:31;39.60;;;17.03;;
8092;SDS011;4089;52.420;13.334;2023-06-26T04:56:58;41.80;;;16.97;;
8092;SDS011;4089;52.420;13.334;2023-06-26T04:59:26;40.17;;;16.30;;
8092;SDS011;4089;52.420;13.334;2023-06-26T05:01:53;37.53;;;16.17;;
8092;SDS011;4089;52.420;13.334;2023-06-26T05:04:19;39.20;;;14.83;;
8092;SDS011;4089;52.420;13.334;2023-06-26T05:06:46;41.63;;;16.80;;
8092;SDS011;4089;52.420;13.334;2023-06-26T05:09:13;36.27;;;16.43;;
8092;SDS011;4089;52.420;13.334;2023-06-26T05:11:40;38.00;;;15.13;;
8092;SDS011;4089;52.420;13.334;2023-06-26T05:14:07;37.90;;;15.83;;
8092;SDS011;4089;52.420;13.334;2023-06-26T05:16:35;42.00;;;14.90;;
8092;SDS011;4089;52.420;13.334;2023-06-26T05:19:02;39.23;;;15.83;;
8092;SDS011;4089;52.420;13.334;2023-06-26T05:21:29;38.33;;;15.50;;
8092;SDS011;4089;52.420;13.334;2023-06-26T05:23:56;42.90;;;16.10;;
8092;SDS011;4089;52.420;13.334;2023-06-26T05:26:25;35.37;;;14.40;;
8092;SDS011;4089;52.420;13.334;2023-06-26T05:28:53;36.10;;;14.07;;
8092;SDS011;4089;52.420;13.334;2023-06-26T05:31:20;36.83;;;15.03;;
8092;SDS011;4089;52.420;13.334;2023-06-26T05:33:47;38.73;;;13.70;;
8092;SDS011;4089;52.420;13.334;2023-06-26T05:36:15;37.73;;;15.00;;
8092;SDS011;4089;52.420;13.334;2023-06-26T05:38:43;40.87;;;14.80;;
8092;SDS011;4089;52.420;13.334;2023-06-26T05:41:10;39.70;;;14.80;;
8092;SDS011;4089;52.420;13.334;2023-06-26T05:43:37;36.50;;;14.60;;
8092;SDS011;4089;52.420;13.334;2023-06-26T05:46:04;36.33;;;14.07;;
8092;SDS011;4089;52.420;13.334;2023-06-26T05:48:31;36.90;;;14.37;;
8092;SDS011;4089;52.420;13.334;2023-06-26T05:50:58;42.20;;;13.20;;
8092;SDS011;4089;52.420;13.334;2023-06-26T05:53:25;43.60;;;13.60;;
8092;SDS011;4089;52.420;13.334;2023-06-26T05:55:52;34.03;;;12.90;;
8092;SDS011;4089;52.420;13.334;2023-06-26T05:58:19;34.53;;;12.30;;
8092;SDS011;4089;52.420;13.334;2023-06-26T06:00:47;34.27;;;12.60;;
8092;SDS011;4089;52.420;13.334;2023-06-26T06:03:14;33.67;;;12.13;;
8092;SDS011;4089;52.420;13.334;2023-06-26T06:05:41;34.80;;;12.80;;
8092;SDS011;4089;52.420;13.334;2023-06-26T06:08:08;37.00;;;12.90;;
8092;SDS011;4089;52.420;13.334;2023-06-26T06:10:35;35.17;;;13.50;;
8092;SDS011;4089;52.420;13.334;2023-06-26T06:13:02;36.30;;;13.30;;
8092;SDS011;4089;52.420;13.334;2023-06-26T06:15:29;34.73;;;14.27;;
8092;SDS011;4089;52.420;13.334;2023-06-26T06:17:56;36.17;;;12.23;;
8092;SDS011;4089;52.420;13.334;2023-06-26T06:20:24;35.53;;;12.30;;
8092;SDS011;4089;52.420;13.334;2023-06-26T06:22:51;35.53;;;13.70;;
8092;SDS011;4089;52.420;13.334;2023-06-26T06:25:18;34.27;;;12.37;;
8092;SDS011;4089;52.420;13.334;2023-06-26T06:27:45;34.23;;;11.30;;
8092;SDS011;4089;52.420;13.334;2023-06-26T06:30:11;36.37;;;12.60;;
8092;SDS011;4089;52.420;13.334;2023-06-26T06:32:39;31.80;;;10.90;;
8092;SDS011;4089;52.420;13.334;2023-06-26T06:35:05;32.40;;;9.63;;
8092;SDS011;4089;52.420;13.334;2023-06-26T06:37:36;33.20;;;11.37;;
8092;SDS011;4089;52.420;13.334;2023-06-26T06:40:08;37.03;;;11.30;;
8092;SDS011;4089;52.420;13.334;2023-06-26T06:42:36;35.60;;;11.07;;
8092;SDS011;4089;52.420;13.334;2023-06-26T06:45:04;35.20;;;10.80;;
8092;SDS011;4089;52.420;13.334;2023-06-26T06:47:31;30.60;;;10.43;;
8092;SDS011;4089;52.420;13.334;2023-06-26T06:49:59;35.40;;;9.90;;
8092;SDS011;4089;52.420;13.334;2023-06-26T06:52:37;35.17;;;9.77;;
8092;SDS011;4089;52.420;13.334;2023-06-26T06:55:06;30.80;;;9.47;;
8092;SDS011;4089;52.420;13.334;2023-06-26T06:57:35;35.90;;;10.07;;
8092;SDS011;4089;52.420;13.334;2023-06-26T07:00:04;38.63;;;9.10;;
8092;SDS011;4089;52.420;13.334;2023-06-26T07:02:39;33.23;;;11.27;;
8092;SDS011;4089;52.420;13.334;2023-06-26T07:05:08;32.07;;;9.97;;
8092;SDS011;4089;52.420;13.334;2023-06-26T07:07:36;33.80;;;10.60;;
8092;SDS011;4089;52.420;13.334;2023-06-26T07:10:05;32.83;;;10.90;;
8092;SDS011;4089;52.420;13.334;2023-06-26T07:12:34;31.33;;;9.80;;
8092;SDS011;4089;52.420;13.334;2023-06-26T07:15:02;29.60;;;9.27;;
8092;SDS011;4089;52.420;13.334;2023-06-26T07:17:31;30.00;;;9.07;;
8092;SDS011;4089;52.420;13.334;2023-06-26T07:19:59;32.33;;;10.40;;
8092;SDS011;4089;52.420;13.334;2023-06-26T07:22:27;29.20;;;8.47;;
8092;SDS011;4089;52.420;13.334;2023-06-26T07:24:53;28.77;;;8.00;;
8092;SDS011;4089;52.420;13.334;2023-06-26T07:27:20;28.43;;;8.40;;
8092;SDS011;4089;52.420;13.334;2023-06-26T07:29:47;31.10;;;8.30;;
8092;SDS011;4089;52.420;13.334;2023-06-26T07:32:14;36.43;;;7.90;;
8092;SDS011;4089;52.420;13.334;2023-06-26T07:34:41;31.30;;;9.33;;
8092;SDS011;4089;52.420;13.334;2023-06-26T07:37:08;29.17;;;7.97;;
8092;SDS011;4089;52.420;13.334;2023-06-26T07:39:35;28.33;;;6.70;;
8092;SDS011;4089;52.420;13.334;2023-06-26T07:42:02;29.00;;;7.50;;
8092;SDS011;4089;52.420;13.334;2023-06-26T07:44:29;29.13;;;7.10;;
8092;SDS011;4089;52.420;13.334;2023-06-26T07:46:55;27.57;;;6.77;;
8092;SDS011;4089;52.420;13.334;2023-06-26T07:49:23;29.17;;;6.43;;
8092;SDS011;4089;52.420;13.334;2023-06-26T07:51:50;29.80;;;7.63;;
8092;SDS011;4089;52.420;13.334;2023-06-26T07:54:16;30.27;;;7.97;;
8092;SDS011;4089;52.420;13.334;2023-06-26T07:56:53;31.13;;;7.80;;
8092;SDS011;4089;52.420;13.334;2023-06-26T07:59:23;28.77;;;8.03;;
8092;SDS011;4089;52.420;13.334;2023-06-26T08:01:52;30.83;;;8.10;;
8092;SDS011;4089;52.420;13.334;2023-06-26T08:04:20;30.87;;;8.40;;
8092;SDS011;4089;52.420;13.334;2023-06-26T08:06:49;30.73;;;8.50;;
8092;SDS011;4089;52.420;13.334;2023-06-26T08:09:20;29.67;;;8.00;;
8092;SDS011;4089;52.420;13.334;2023-06-26T08:11:48;29.70;;;7.90;;
8092;SDS011;4089;52.420;13.334;2023-06-26T08:14:16;28.80;;;7.83;;
8092;SDS011;4089;52.420;13.334;2023-06-26T08:16:43;33.93;;;7.23;;
8092;SDS011;4089;52.420;13.334;2023-06-26T08:19:11;30.97;;;7.40;;
8092;SDS011;4089;52.420;13.334;2023-06-26T08:21:42;33.50;;;7.13;;
8092;SDS011;4089;52.420;13.334;2023-06-26T08:24:10;28.10;;;7.20;;
8092;SDS011;4089;52.420;13.334;2023-06-26T08:26:37;31.07;;;8.10;;
8092;SDS011;4089;52.420;13.334;2023-06-26T08:29:04;29.30;;;7.40;;
8092;SDS011;4089;52.420;13.334;2023-06-26T08:31:38;32.17;;;7.40;;
8092;SDS011;4089;52.420;13.334;2023-06-26T08:34:06;28.07;;;6.57;;
8092;SDS011;4089;52.420;13.334;2023-06-26T08:36:34;29.43;;;6.63;;
8092;SDS011;4089;52.420;13.334;2023-06-26T08:39:00;29.80;;;6.40;;
8092;SDS011;4089;52.420;13.334;2023-06-26T08:41:27;28.00;;;6.20;;
8092;SDS011;4089;52.420;13.334;2023-06-26T08:43:54;28.10;;;5.60;;
8092;SDS011;4089;52.420;13.334;2023-06-26T08:46:21;28.83;;;5.80;;
8092;SDS011;4089;52.420;13.334;2023-06-26T08:48:49;30.37;;;6.67;;
8092;SDS011;4089;52.420;13.334;2023-06-26T08:51:27;32.47;;;6.50;;
8092;SDS011;4089;52.420;13.334;2023-06-26T08:53:56;27.67;;;5.90;;
8092;SDS011;4089;52.420;13.334;2023-06-26T08:56:25;31.43;;;6.87;;
8092;SDS011;4089;52.420;13.334;2023-06-26T08:59:04;27.97;;;5.80;;
8092;SDS011;4089;52.420;13.334;2023-06-26T09:01:32;28.20;;;5.33;;
8092;SDS011;4089;52.420;13.334;2023-06-26T09:03:59;30.20;;;5.60;;
8092;SDS011;4089;52.420;13.334;2023-06-26T09:06:26;31.57;;;6.03;;
8092;SDS011;4089;52.420;13.334;2023-06-26T09:08:53;32.97;;;5.50;;
8092;SDS011;4089;52.420;13.334;2023-06-26T09:11:20;29.13;;;5.00;;
8092;SDS011;4089;52.420;13.334;2023-06-26T09:13:47;28.53;;;5.30;;
8092;SDS011;4089;52.420;13.334;2023-06-26T09:16:14;27.70;;;4.70;;
8092;SDS011;4089;52.420;13.334;2023-06-26T09:18:41;28.60;;;5.30;;
8092;SDS011;4089;52.420;13.334;2023-06-26T09:21:11;27.70;;;4.40;;
8092;SDS011;4089;52.420;13.334;2023-06-26T09:23:41;27.47;;;4.50;;
8092;SDS011;4089;52.420;13.334;2023-06-26T09:26:09;43.53;;;7.33;;
8092;SDS011;4089;52.420;13.334;2023-06-26T09:28:37;29.40;;;4.67;;
8092;SDS011;4089;52.420;13.334;2023-06-26T09:31:05;28.10;;;4.80;;
8092;SDS011;4089;52.420;13.334;2023-06-26T09:33:35;28.00;;;5.20;;
8092;SDS011;4089;52.420;13.334;2023-06-26T09:36:06;28.57;;;5.00;;
8092;SDS011;4089;52.420;13.334;2023-06-26T09:38:36;29.77;;;4.40;;
8092;SDS011;4089;52.420;13.334;2023-06-26T09:41:03;28.30;;;5.57;;
8092;SDS011;4089;52.420;13.334;2023-06-26T09:43:30;28.40;;;5.33;;
8092;SDS011;4089;52.420;13.334;2023-06-26T09:45:58;29.90;;;5.60;;
8092;SDS011;4089;52.420;13.334;2023-06-26T09:48:27;28.13;;;5.30;;
8092;SDS011;4089;52.420;13.334;2023-06-26T09:50:55;27.90;;;4.70;;
8092;SDS011;4089;52.420;13.334;2023-06-26T09:53:38;28.60;;;4.50;;
8092;SDS011;4089;52.420;13.334;2023-06-26T09:56:15;28.03;;;4.40;;
8092;SDS011;4089;52.420;13.334;2023-06-26T09:58:45;29.00;;;5.40;;
8092;SDS011;4089;52.420;13.334;2023-06-26T10:01:12;29.73;;;5.40;;
8092;SDS011;4089;52.420;13.334;2023-06-26T10:03:40;30.93;;;5.13;;
8092;SDS011;4089;52.420;13.334;2023-06-26T10:06:08;28.73;;;5.00;;
8092;SDS011;4089;52.420;13.334;2023-06-26T10:08:37;29.47;;;5.10;;
8092;SDS011;4089;52.420;13.334;2023-06-26T10:11:06;27.63;;;5.00;;
8092;SDS011;4089;52.420;13.334;2023-06-26T10:13:40;28.10;;;5.43;;
8092;SDS011;4089;52.420;13.334;2023-06-26T10:16:09;26.90;;;4.50;;
8092;SDS011;4089;52.420;13.334;2023-06-26T10:18:38;27.63;;;4.90;;
8092;SDS011;4089;52.420;13.334;2023-06-26T10:21:06;28.80;;;5.13;;
8092;SDS011;4089;52.420;13.334;2023-06-26T10:23:36;28.13;;;4.43;;
8092;SDS011;4089;52.420;13.334;2023-06-26T10:26:07;27.80;;;4.70;;
8092;SDS011;4089;52.420;13.334;2023-06-26T10:28:36;32.20;;;5.30;;
8092;SDS011;4089;52.420;13.334;2023-06-26T10:31:04;28.40;;;4.90;;
8092;SDS011;4089;52.420;13.334;2023-06-26T10:33:35;27.80;;;4.47;;
8092;SDS011;4089;52.420;13.334;2023-06-26T10:36:13;28.83;;;4.70;;
8092;SDS011;4089;52.420;13.334;2023-06-26T10:38:51;29.83;;;5.03;;
8092;SDS011;4089;52.420;13.334;2023-06-26T10:41:24;29.10;;;4.73;;
8092;SDS011;4089;52.420;13.334;2023-06-26T10:46:34;27.47;;;4.93;;
8092;SDS011;4089;52.420;13.334;2023-06-26T10:49:24;27.67;;;4.23;;
8092;SDS011;4089;52.420;13.334;2023-06-26T10:51:52;28.13;;;3.97;;
8092;SDS011;4089;52.420;13.334;2023-06-26T10:54:21;32.50;;;5.53;;
8092;SDS011;4089;52.420;13.334;2023-06-26T10:56:48;33.53;;;4.87;;
8092;SDS011;4089;52.420;13.334;2023-06-26T10:59:21;33.70;;;4.80;;
8092;SDS011;4089;52.420;13.334;2023-06-26T11:01:57;28.23;;;4.87;;
8092;SDS011;4089;52.420;13.334;2023-06-26T11:04:40;31.97;;;4.73;;
8092;SDS011;4089;52.420;13.334;2023-06-26T11:15:07;28.50;;;4.80;;
8092;SDS011;4089;52.420;13.334;2023-06-26T11:17:34;30.03;;;5.27;;
8092;SDS011;4089;52.420;13.334;2023-06-26T11:20:02;28.83;;;5.37;;
8092;SDS011;4089;52.420;13.334;2023-06-26T11:22:37;27.70;;;4.40;;
8092;SDS011;4089;52.420;13.334;2023-06-26T11:25:09;28.77;;;5.40;;
8092;SDS011;4089;52.420;13.334;2023-06-26T11:30:06;29.67;;;4.60;;
8092;SDS011;4089;52.420;13.334;2023-06-26T11:32:36;32.30;;;5.20;;
8092;SDS011;4089;52.420;13.334;2023-06-26T11:35:04;31.23;;;4.97;;
8092;SDS011;4089;52.420;13.334;2023-06-26T11:37:32;30.67;;;5.67;;
8092;SDS011;4089;52.420;13.334;2023-06-26T11:40:16;29.30;;;4.70;;
8092;SDS011;4089;52.420;13.334;2023-06-26T11:42:44;28.27;;;4.87;;
8092;SDS011;4089;52.420;13.334;2023-06-26T11:45:11;29.87;;;4.87;;
8092;SDS011;4089;52.420;13.334;2023-06-26T11:47:38;28.60;;;5.10;;
8092;SDS011;4089;52.420;13.334;2023-06-26T11:50:06;31.40;;;5.20;;
8092;SDS011;4089;52.420;13.334;2023-06-26T11:52:33;31.03;;;5.17;;
8092;SDS011;4089;52.420;13.334;2023-06-26T11:55:00;28.60;;;5.17;;
8092;SDS011;4089;52.420;13.334;2023-06-26T11:57:26;34.20;;;5.77;;
8092;SDS011;4089;52.420;13.334;2023-06-26T11:59:56;29.33;;;6.03;;
8092;SDS011;4089;52.420;13.334;2023-06-26T12:02:23;34.90;;;6.43;;
8092;SDS011;4089;52.420;13.334;2023-06-26T12:04:50;29.77;;;5.43;;
8092;SDS011;4089;52.420;13.334;2023-06-26T12:07:17;34.33;;;6.17;;
8092;SDS011;4089;52.420;13.334;2023-06-26T12:09:45;29.67;;;5.40;;
8092;SDS011;4089;52.420;13.334;2023-06-26T12:12:14;29.30;;;5.70;;
8092;SDS011;4089;52.420;13.334;2023-06-26T12:14:43;30.33;;;6.17;;
8092;SDS011;4089;52.420;13.334;2023-06-26T12:17:11;31.17;;;6.10;;
8092;SDS011;4089;52.420;13.334;2023-06-26T12:19:46;37.73;;;6.00;;
8092;SDS011;4089;52.420;13.334;2023-06-26T12:22:17;29.70;;;5.87;;
8092;SDS011;4089;52.420;13.334;2023-06-26T12:24:45;31.10;;;5.47;;
8092;SDS011;4089;52.420;13.334;2023-06-26T12:27:13;31.30;;;5.97;;
8092;SDS011;4089;52.420;13.334;2023-06-26T12:30:03;29.07;;;5.37;;
8092;SDS011;4089;52.420;13.334;2023-06-26T12:32:29;31.00;;;6.00;;
8092;SDS011;4089;52.420;13.334;2023-06-26T12:34:57;30.57;;;6.50;;
8092;SDS011;4089;52.420;13.334;2023-06-26T12:37:25;30.43;;;6.10;;
8092;SDS011;4089;52.420;13.334;2023-06-26T12:39:53;30.93;;;6.80;;
8092;SDS011;4089;52.420;13.334;2023-06-26T12:42:27;31.83;;;6.60;;
8092;SDS011;4089;52.420;13.334;2023-06-26T12:44:54;32.80;;;6.57;;
8092;SDS011;4089;52.420;13.334;2023-06-26T12:47:25;31.10;;;6.40;;
8092;SDS011;4089;52.420;13.334;2023-06-26T12:49:54;30.50;;;6.17;;
8092;SDS011;4089;52.420;13.334;2023-06-26T12:52:21;33.37;;;7.00;;
8092;SDS011;4089;52.420;13.334;2023-06-26T12:54:51;30.57;;;6.17;;
8092;SDS011;4089;52.420;13.334;2023-06-26T12:57:19;30.97;;;6.50;;
8092;SDS011;4089;52.420;13.334;2023-06-26T12:59:46;32.67;;;6.70;;
8092;SDS011;4089;52.420;13.334;2023-06-26T13:02:13;34.83;;;6.37;;
8092;SDS011;4089;52.420;13.334;2023-06-26T13:04:40;31.10;;;5.70;;
8092;SDS011;4089;52.420;13.334;2023-06-26T13:07:08;32.30;;;6.90;;
8092;SDS011;4089;52.420;13.334;2023-06-26T13:09:35;31.57;;;6.30;;
8092;SDS011;4089;52.420;13.334;2023-06-26T13:12:03;31.87;;;6.43;;
8092;SDS011;4089;52.420;13.334;2023-06-26T13:14:32;30.90;;;6.33;;
8092;SDS011;4089;52.420;13.334;2023-06-26T13:17:02;31.37;;;6.33;;
8092;SDS011;4089;52.420;13.334;2023-06-26T13:19:32;34.97;;;6.43;;
8092;SDS011;4089;52.420;13.334;2023-06-26T13:21:58;32.50;;;6.80;;
8092;SDS011;4089;52.420;13.334;2023-06-26T13:24:26;30.87;;;6.97;;
8092;SDS011;4089;52.420;13.334;2023-06-26T13:26:53;34.00;;;7.23;;
8092;SDS011;4089;52.420;13.334;2023-06-26T13:29:20;31.93;;;6.97;;
8092;SDS011;4089;52.420;13.334;2023-06-26T13:31:47;31.27;;;6.60;;
8092;SDS011;4089;52.420;13.334;2023-06-26T13:34:21;31.67;;;6.43;;
8092;SDS011;4089;52.420;13.334;2023-06-26T13:36:54;31.70;;;6.50;;
8092;SDS011;4089;52.420;13.334;2023-06-26T13:39:21;34.63;;;6.70;;
8092;SDS011;4089;52.420;13.334;2023-06-26T13:41:48;30.30;;;6.63;;
8092;SDS011;4089;52.420;13.334;2023-06-26T13:44:14;31.80;;;6.80;;
8092;SDS011;4089;52.420;13.334;2023-06-26T13:46:59;31.07;;;6.73;;
8092;SDS011;4089;52.420;13.334;2023-06-26T13:49:25;32.33;;;6.23;;
8092;SDS011;4089;52.420;13.334;2023-06-26T13:51:52;33.40;;;6.30;;
8092;SDS011;4089;52.420;13.334;2023-06-26T13:54:19;32.10;;;6.33;;
8092;SDS011;4089;52.420;13.334;2023-06-26T13:56:46;33.00;;;6.50;;
8092;SDS011;4089;52.420;13.334;2023-06-26T13:59:13;32.87;;;5.77;;
8092;SDS011;4089;52.420;13.334;2023-06-26T14:01:41;37.73;;;6.23;;
8092;SDS011;4089;52.420;13.334;2023-06-26T14:04:10;32.20;;;6.93;;
8092;SDS011;4089;52.420;13.334;2023-06-26T14:06:37;32.60;;;6.10;;
8092;SDS011;4089;52.420;13.334;2023-06-26T14:09:04;31.47;;;6.40;;
8092;SDS011;4089;52.420;13.334;2023-06-26T14:11:31;35.10;;;7.00;;
8092;SDS011;4089;52.420;13.334;2023-06-26T14:13:58;33.93;;;5.90;;
8092;SDS011;4089;52.420;13.334;2023-06-26T14:16:26;32.87;;;7.00;;
8092;SDS011;4089;52.420;13.334;2023-06-26T14:18:55;35.23;;;6.93;;
8092;SDS011;4089;52.420;13.334;2023-06-26T14:21:22;33.93;;;7.20;;
8092;SDS011;4089;52.420;13.334;2023-06-26T14:23:48;46.07;;;6.20;;
8092;SDS011;4089;52.420;13.334;2023-06-26T14:26:15;30.93;;;4.10;;
8092;SDS011;4089;52.420;13.334;2023-06-26T14:28:42;33.60;;;6.73;;
8092;SDS011;4089;52.420;13.334;2023-06-26T14:31:09;54.03;;;9.07;;
8092;SDS011;4089;52.420;13.334;2023-06-26T14:33:35;43.67;;;11.77;;
8092;SDS011;4089;52.420;13.334;2023-06-26T14:36:02;40.97;;;10.60;;
8092;SDS011;4089;52.420;13.334;2023-06-26T14:38:29;42.20;;;11.90;;
8092;SDS011;4089;52.420;13.334;2023-06-26T14:40:56;41.90;;;12.97;;
8092;SDS011;4089;52.420;13.334;2023-06-26T14:43:23;53.67;;;17.60;;
8092;SDS011;4089;52.420;13.334;2023-06-26T14:45:50;62.20;;;26.50;;
8092;SDS011;4089;52.420;13.334;2023-06-26T14:48:18;49.60;;;24.47;;
8092;SDS011;4089;52.420;13.334;2023-06-26T14:50:45;60.43;;;26.53;;
8092;SDS011;4089;52.420;13.334;2023-06-26T14:53:12;62.03;;;20.37;;
8092;SDS011;4089;52.420;13.334;2023-06-26T14:55:39;69.33;;;26.07;;
8092;SDS011;4089;52.420;13.334;2023-06-26T14:58:06;63.10;;;28.30;;
8092;SDS011;4089;52.420;13.334;2023-06-26T15:00:33;15.80;;;0.40;;
8092;SDS011;4089;52.420;13.334;2023-06-26T15:03:00;65.00;;;34.13;;
8092;SDS011;4089;52.420;13.334;2023-06-26T15:05:27;75.53;;;33.60;;
8092;SDS011;4089;52.420;13.334;2023-06-26T15:07:54;75.97;;;34.67;;